Time;durP1;ratioP1;P1;durP2;ratioP2;P2;SDS_P1;SDS_P2;PMS_P1;PMS_P2;Temp;Humidity;BMP_temperature;BMP_pressure;BME280_temperature;BME280_humidity;BME280_pressure;Samples;Min_cycle;Max_cycle;Signal;HPM_P1;HPM_P2
2022/08/10 00:01:48;;;;;;;2.50;2.17;;;;;;;;;;4972657;28;20209;-74
2022/08/10 00:04:19;;;;;;;3.50;2.50;;;;;;;;;;4976285;28;20198;-74
2022/08/10 00:06:48;;;;;;;2.70;2.50;;;;;;;;;;4975169;28;20312;-74
2022/08/10 00:09:18;;;;;;;4.37;2.23;;;;;;;;;;4974600;28;20229;-74
2022/08/10 00:11:47;;;;;;;2.40;2.20;;;;;;;;;;4963953;28;20206;-74
2022/08/10 00:14:15;;;;;;;3.13;2.50;;;;;;;;;;4964955;28;20241;-75
2022/08/10 00:16:43;;;;;;;3.60;2.43;;;;;;;;;;4972395;28;20213;-74
2022/08/10 00:19:12;;;;;;;4.83;2.50;;;;;;;;;;4975919;28;20240;-74
2022/08/10 00:21:44;;;;;;;2.60;2.40;;;;;;;;;;4975573;28;20663;-74
2022/08/10 00:24:13;;;;;;;2.70;2.23;;;;;;;;;;4976044;28;20257;-74
2022/08/10 00:26:43;;;;;;;4.40;2.53;;;;;;;;;;4975250;28;20213;-74
2022/08/10 00:29:31;;;;;;;5.33;2.60;;;;;;;;;;4971687;28;20230;-74
2022/08/10 00:32:00;;;;;;;3.53;2.60;;;;;;;;;;4976282;28;20256;-74
2022/08/10 00:34:29;;;;;;;3.97;2.50;;;;;;;;;;4973700;28;20205;-74
2022/08/10 00:36:57;;;;;;;2.60;2.40;;;;;;;;;;4974626;28;20334;-74
2022/08/10 00:39:26;;;;;;;3.37;2.30;;;;;;;;;;4974064;28;20222;-74
2022/08/10 00:41:56;;;;;;;2.40;2.20;;;;;;;;;;4975192;28;20228;-74
2022/08/10 00:44:34;;;;;;;3.67;2.50;;;;;;;;;;4974887;28;20616;-74
2022/08/10 00:47:03;;;;;;;3.87;2.60;;;;;;;;;;4974431;28;20714;-74
2022/08/10 00:49:31;;;;;;;2.70;2.50;;;;;;;;;;4973556;28;20236;-74
2022/08/10 00:52:00;;;;;;;4.50;2.67;;;;;;;;;;4974337;28;20205;-74
2022/08/10 00:54:28;;;;;;;2.70;2.50;;;;;;;;;;4973781;28;20202;-74
2022/08/10 00:56:58;;;;;;;3.13;2.40;;;;;;;;;;4972796;28;20209;-74
2022/08/10 00:59:45;;;;;;;3.67;2.37;;;;;;;;;;4962199;28;20683;-74
2022/08/10 01:02:27;;;;;;;3.53;2.50;;;;;;;;;;4973181;28;20260;-74
2022/08/10 01:04:56;;;;;;;3.87;2.80;;;;;;;;;;4973982;28;20208;-74
2022/08/10 01:07:32;;;;;;;3.80;2.90;;;;;;;;;;4970119;28;20206;-74
2022/08/10 01:10:06;;;;;;;2.73;2.30;;;;;;;;;;4967470;28;20624;-74
2022/08/10 01:12:41;;;;;;;4.63;2.70;;;;;;;;;;4974563;28;20264;-74
2022/08/10 01:15:15;;;;;;;5.10;2.70;;;;;;;;;;4973153;28;20236;-74
2022/08/10 01:17:49;;;;;;;3.47;2.50;;;;;;;;;;4971994;28;20263;-74
2022/08/10 01:20:23;;;;;;;4.17;2.60;;;;;;;;;;4973577;28;20217;-74
2022/08/10 01:23:31;;;;;;;4.20;2.60;;;;;;;;;;4974839;28;20276;-74
2022/08/10 01:26:14;;;;;;;2.87;2.63;;;;;;;;;;4969692;28;20256;-74
2022/08/10 01:29:08;;;;;;;4.83;2.70;;;;;;;;;;4940647;28;20230;-74
2022/08/10 01:31:41;;;;;;;4.27;2.63;;;;;;;;;;4970758;28;20608;-74
2022/08/10 01:34:12;;;;;;;3.73;2.80;;;;;;;;;;4963676;28;20202;-74
2022/08/10 01:36:44;;;;;;;3.37;2.80;;;;;;;;;;4972399;28;20671;-74
2022/08/10 01:39:14;;;;;;;3.00;2.70;;;;;;;;;;4974381;28;20226;-74
2022/08/10 01:41:45;;;;;;;3.47;2.60;;;;;;;;;;4974129;28;20569;-74
2022/08/10 01:44:15;;;;;;;3.03;2.73;;;;;;;;;;4970320;28;20253;-74
2022/08/10 01:46:51;;;;;;;4.50;2.73;;;;;;;;;;4970832;28;20666;-74
2022/08/10 01:49:24;;;;;;;5.43;3.10;;;;;;;;;;4973808;28;20233;-74
2022/08/10 01:51:53;;;;;;;3.00;2.80;;;;;;;;;;4970053;28;20655;-74
2022/08/10 01:54:23;;;;;;;3.07;2.77;;;;;;;;;;4972802;28;20608;-74
2022/08/10 01:56:54;;;;;;;3.30;2.83;;;;;;;;;;4972831;28;20210;-74
2022/08/10 01:59:26;;;;;;;3.93;2.70;;;;;;;;;;4972585;28;20217;-74
2022/08/10 02:01:56;;;;;;;3.53;2.77;;;;;;;;;;4972900;28;20686;-74
2022/08/10 02:04:26;;;;;;;5.13;2.87;;;;;;;;;;4973903;28;20249;-74
2022/08/10 02:06:55;;;;;;;2.93;2.73;;;;;;;;;;4973593;28;20221;-74
2022/08/10 02:09:25;;;;;;;3.20;2.73;;;;;;;;;;4974077;28;20229;-74
2022/08/10 02:11:54;;;;;;;4.30;2.77;;;;;;;;;;4974263;28;20217;-74
2022/08/10 02:14:37;;;;;;;3.27;3.00;;;;;;;;;;4969481;28;20198;-74
2022/08/10 02:17:08;;;;;;;3.63;2.93;;;;;;;;;;4973423;28;20231;-74
2022/08/10 02:19:59;;;;;;;4.03;2.80;;;;;;;;;;4968104;28;20257;-74
2022/08/10 02:22:29;;;;;;;3.37;3.07;;;;;;;;;;4968567;28;20205;-74
2022/08/10 02:25:14;;;;;;;3.30;2.80;;;;;;;;;;4973124;28;20225;-74
2022/08/10 02:28:04;;;;;;;3.57;3.27;;;;;;;;;;4973736;28;20229;-74
2022/08/10 02:30:32;;;;;;;4.07;2.70;;;;;;;;;;4972575;28;20608;-74
2022/08/10 02:33:02;;;;;;;3.63;2.97;;;;;;;;;;4973696;28;20206;-74
2022/08/10 02:35:32;;;;;;;3.50;2.77;;;;;;;;;;4972263;28;20229;-74
2022/08/10 02:38:22;;;;;;;3.97;2.87;;;;;;;;;;4973395;28;20296;-74
2022/08/10 02:41:12;;;;;;;3.57;3.17;;;;;;;;;;4973144;28;20621;-74
2022/08/10 02:44:03;;;;;;;4.17;3.07;;;;;;;;;;4964819;28;20769;-74
2022/08/10 02:46:55;;;;;;;4.93;3.40;;;;;;;;;;4972252;28;20206;-74
2022/08/10 02:49:29;;;;;;;4.83;3.27;;;;;;;;;;4973508;28;20678;-74
2022/08/10 02:51:59;;;;;;;5.00;3.80;;;;;;;;;;4973478;28;20205;-74
2022/08/10 02:54:37;;;;;;;4.60;3.33;;;;;;;;;;4973068;28;20205;-74
2022/08/10 02:57:09;;;;;;;4.63;3.67;;;;;;;;;;4972425;28;20289;-74
2022/08/10 02:59:40;;;;;;;7.67;3.70;;;;;;;;;;4960064;28;20577;-74
2022/08/10 03:02:11;;;;;;;3.60;3.30;;;;;;;;;;4972502;28;20225;-74
2022/08/10 03:04:43;;;;;;;3.80;3.37;;;;;;;;;;4973127;28;20214;-74
2022/08/10 03:07:27;;;;;;;3.83;3.13;;;;;;;;;;4974508;28;20205;-74
2022/08/10 03:10:14;;;;;;;4.20;3.37;;;;;;;;;;4976636;28;20211;-74
2022/08/10 03:12:44;;;;;;;4.87;3.43;;;;;;;;;;4975716;28;20202;-74
2022/08/10 03:15:13;;;;;;;3.63;3.33;;;;;;;;;;4975994;28;20201;-74
2022/08/10 03:17:43;;;;;;;5.20;3.83;;;;;;;;;;4975207;28;20202;-74
2022/08/10 03:20:29;;;;;;;4.47;3.63;;;;;;;;;;4976368;28;20313;-74
2022/08/10 03:23:10;;;;;;;3.90;3.33;;;;;;;;;;4975847;28;20201;-74
2022/08/10 03:25:39;;;;;;;3.63;3.33;;;;;;;;;;4976135;28;20230;-74
2022/08/10 03:28:07;;;;;;;4.30;3.43;;;;;;;;;;4975263;28;20229;-74
2022/08/10 03:30:36;;;;;;;4.43;4.03;;;;;;;;;;4974809;28;20209;-74
2022/08/10 03:33:05;;;;;;;5.20;3.77;;;;;;;;;;4975918;28;20222;-74
2022/08/10 03:35:35;;;;;;;4.43;4.00;;;;;;;;;;4975888;28;20198;-74
2022/08/10 03:38:04;;;;;;;4.40;3.53;;;;;;;;;;4975087;28;20222;-74
2022/08/10 03:40:35;;;;;;;5.00;3.80;;;;;;;;;;4975725;28;20209;-74
2022/08/10 03:43:15;;;;;;;3.80;3.50;;;;;;;;;;4975592;28;20201;-74
2022/08/10 03:45:44;;;;;;;4.17;3.73;;;;;;;;;;4975764;28;20222;-74
2022/08/10 03:48:23;;;;;;;6.17;3.50;;;;;;;;;;4957499;29;20699;-74
2022/08/10 03:51:13;;;;;;;4.20;3.80;;;;;;;;;;4973213;28;20261;-74
2022/08/10 03:53:42;;;;;;;5.00;3.60;;;;;;;;;;4976390;28;20209;-74
2022/08/10 03:56:30;;;;;;;4.33;3.93;;;;;;;;;;4975944;28;20737;-74
2022/08/10 03:59:01;;;;;;;5.03;3.90;;;;;;;;;;4975525;28;20229;-74
2022/08/10 04:01:29;;;;;;;6.67;3.90;;;;;;;;;;4973092;28;20730;-75
2022/08/10 04:04:12;;;;;;;4.83;4.40;;;;;;;;;;4973171;28;20216;-74
2022/08/10 04:06:47;;;;;;;4.60;3.87;;;;;;;;;;4975162;28;20229;-74
2022/08/10 04:09:21;;;;;;;3.73;3.43;;;;;;;;;;4974773;28;20264;-74
2022/08/10 04:11:50;;;;;;;3.70;3.40;;;;;;;;;;4975621;28;20551;-73
2022/08/10 04:14:18;;;;;;;4.53;3.40;;;;;;;;;;4975025;28;20256;-73
2022/08/10 04:17:07;;;;;;;4.20;3.80;;;;;;;;;;4973375;28;20203;-73
2022/08/10 04:19:43;;;;;;;3.73;3.33;;;;;;;;;;4974093;28;20713;-73
2022/08/10 04:22:15;;;;;;;5.20;4.07;;;;;;;;;;4975028;28;20209;-74
2022/08/10 04:24:45;;;;;;;4.17;3.77;;;;;;;;;;4975028;28;20229;-74
2022/08/10 04:27:14;;;;;;;4.63;3.60;;;;;;;;;;4973814;28;20205;-73
2022/08/10 04:29:43;;;;;;;5.80;3.90;;;;;;;;;;4974388;28;20230;-73
2022/08/10 04:32:13;;;;;;;5.10;3.90;;;;;;;;;;4975331;28;20209;-73
2022/08/10 04:34:42;;;;;;;5.07;3.80;;;;;;;;;;4975380;28;20244;-74
2022/08/10 04:37:11;;;;;;;4.50;4.10;;;;;;;;;;4974397;28;20603;-73
2022/08/10 04:39:41;;;;;;;4.70;4.30;;;;;;;;;;4976366;28;21200;-73
2022/08/10 04:42:10;;;;;;;4.83;4.43;;;;;;;;;;4970618;28;20202;-73
2022/08/10 04:44:39;;;;;;;4.87;4.40;;;;;;;;;;4973990;28;20202;-73
2022/08/10 04:47:08;;;;;;;5.17;4.67;;;;;;;;;;4974177;28;20205;-74
2022/08/10 04:49:38;;;;;;;5.00;4.50;;;;;;;;;;4972451;28;20222;-73
2022/08/10 04:52:24;;;;;;;6.37;4.50;;;;;;;;;;4961677;28;20210;-73
2022/08/10 04:54:54;;;;;;;5.70;4.77;;;;;;;;;;4965920;28;20201;-74
2022/08/10 04:57:22;;;;;;;5.50;4.87;;;;;;;;;;4973531;28;20268;-74
2022/08/10 04:59:51;;;;;;;6.10;4.77;;;;;;;;;;4966166;28;20229;-73
2022/08/10 05:02:19;;;;;;;6.20;4.77;;;;;;;;;;4974892;28;20245;-73
2022/08/10 05:04:59;;;;;;;9.57;5.50;;;;;;;;;;4971471;28;20229;-73
2022/08/10 05:07:28;;;;;;;6.43;5.10;;;;;;;;;;4965697;28;20218;-73
2022/08/10 05:09:57;;;;;;;7.37;5.13;;;;;;;;;;4974865;28;20257;-73
2022/08/10 05:12:34;;;;;;;7.57;5.50;;;;;;;;;;4974718;28;20705;-73
2022/08/10 05:15:06;;;;;;;10.23;5.53;;;;;;;;;;4964897;28;20202;-73
2022/08/10 05:17:35;;;;;;;7.67;5.53;;;;;;;;;;4974574;28;20662;-73
2022/08/10 05:20:04;;;;;;;8.27;5.30;;;;;;;;;;4975011;28;20201;-74
2022/08/10 05:22:35;;;;;;;6.63;5.80;;;;;;;;;;4970645;28;20210;-73
2022/08/10 05:25:06;;;;;;;5.83;5.23;;;;;;;;;;4974269;28;20221;-73
2022/08/10 05:27:35;;;;;;;9.07;5.70;;;;;;;;;;4973853;28;20198;-73
2022/08/10 05:30:05;;;;;;;8.43;5.33;;;;;;;;;;4974629;28;20242;-73
2022/08/10 05:32:35;;;;;;;6.47;5.00;;;;;;;;;;4974073;28;20209;-74
2022/08/10 05:35:24;;;;;;;5.90;5.30;;;;;;;;;;4974689;28;20261;-74
2022/08/10 05:37:55;;;;;;;7.50;5.47;;;;;;;;;;4973346;28;20232;-74
2022/08/10 05:40:43;;;;;;;5.80;5.07;;;;;;;;;;4973677;28;20640;-74
2022/08/10 05:43:15;;;;;;;5.80;5.17;;;;;;;;;;4972555;28;20698;-74
2022/08/10 05:45:44;;;;;;;5.63;5.00;;;;;;;;;;4974571;28;20232;-74
2022/08/10 05:48:33;;;;;;;6.03;4.97;;;;;;;;;;4973909;28;20218;-74
2022/08/10 05:51:22;;;;;;;6.03;5.20;;;;;;;;;;4973245;28;20288;-74
2022/08/10 05:53:50;;;;;;;6.50;5.33;;;;;;;;;;4973824;28;20671;-74
2022/08/10 05:56:33;;;;;;;6.70;4.70;;;;;;;;;;4972175;28;20194;-75
2022/08/10 05:59:22;;;;;;;5.23;4.80;;;;;;;;;;4974547;28;20218;-74
2022/08/10 06:02:10;;;;;;;5.30;4.73;;;;;;;;;;4974166;28;20210;-74
2022/08/10 06:05:00;;;;;;;5.40;4.90;;;;;;;;;;4963761;28;20256;-74
2022/08/10 06:07:30;;;;;;;5.97;4.50;;;;;;;;;;4966709;28;20206;-74
2022/08/10 06:10:01;;;;;;;5.63;4.93;;;;;;;;;;4974408;28;20210;-74
2022/08/10 06:12:34;;;;;;;5.47;4.97;;;;;;;;;;4974339;28;20233;-74
2022/08/10 06:15:23;;;;;;;4.83;4.43;;;;;;;;;;4973390;28;20256;-74
2022/08/10 06:18:12;;;;;;;6.00;5.03;;;;;;;;;;4973694;28;20265;-74
2022/08/10 06:20:41;;;;;;;5.13;4.73;;;;;;;;;;4973791;28;20218;-74
2022/08/10 06:23:10;;;;;;;5.77;4.57;;;;;;;;;;4974332;28;20268;-74
2022/08/10 06:25:39;;;;;;;7.80;5.00;;;;;;;;;;4973104;28;20273;-74
2022/08/10 06:28:30;;;;;;;5.03;4.53;;;;;;;;;;4974527;28;20225;-74
2022/08/10 06:31:00;;;;;;;5.20;4.67;;;;;;;;;;4973735;28;20280;-74
2022/08/10 06:33:31;;;;;;;6.53;4.57;;;;;;;;;;4955113;29;20731;-74
2022/08/10 06:36:01;;;;;;;7.47;4.40;;;;;;;;;;4970485;28;20209;-74
2022/08/10 06:38:32;;;;;;;5.32;4.82;;;;;;;;;;4955150;28;20231;-74
2022/08/10 06:41:03;;;;;;;7.10;4.45;;;;;;;;;;4971263;28;20206;-74
2022/08/10 06:43:34;;;;;;;5.57;4.30;;;;;;;;;;4963171;28;20221;-74
2022/08/10 06:46:05;;;;;;;6.32;4.38;;;;;;;;;;4976939;28;20222;-74
2022/08/10 06:48:39;;;;;;;6.68;4.78;;;;;;;;;;4958785;28;20608;-74
2022/08/10 06:51:08;;;;;;;7.07;4.40;;;;;;;;;;4977792;28;20206;-74
2022/08/10 06:53:38;;;;;;;5.07;4.50;;;;;;;;;;4977982;28;20213;-75
2022/08/10 06:56:23;;;;;;;4.88;4.05;;;;;;;;;;4977262;28;20205;-74
2022/08/10 06:59:14;;;;;;;4.30;3.90;;;;;;;;;;4977592;28;20244;-75
2022/08/10 07:01:50;;;;;;;5.68;4.32;;;;;;;;;;4977143;28;20205;-75
2022/08/10 07:04:28;;;;;;;4.05;3.75;;;;;;;;;;4977673;28;20667;-75
2022/08/10 07:07:01;;;;;;;5.90;4.13;;;;;;;;;;4977244;28;20669;-75
2022/08/10 07:09:31;;;;;;;4.55;3.80;;;;;;;;;;4977566;28;20225;-75
2022/08/10 07:12:00;;;;;;;4.22;3.70;;;;;;;;;;4976899;28;20671;-75
2022/08/10 07:14:39;;;;;;;4.68;3.55;;;;;;;;;;4977240;28;20293;-75
2022/08/10 07:17:09;;;;;;;5.53;3.53;;;;;;;;;;4977571;28;20725;-75
2022/08/10 07:19:44;;;;;;;5.38;3.50;;;;;;;;;;4976938;28;20233;-75
2022/08/10 07:22:21;;;;;;;5.15;3.17;;;;;;;;;;4976162;28;20213;-75
2022/08/10 07:25:11;;;;;;;6.50;3.30;;;;;;;;;;4972688;28;20253;-75
2022/08/10 07:27:40;;;;;;;5.28;3.00;;;;;;;;;;4976526;28;20741;-75
2022/08/10 07:30:30;;;;;;;5.70;3.20;;;;;;;;;;4976269;28;20201;-75
2022/08/10 07:32:59;;;;;;;4.70;2.72;;;;;;;;;;4977379;28;20190;-75
2022/08/10 07:35:28;;;;;;;4.15;2.80;;;;;;;;;;4976711;28;20268;-75
2022/08/10 07:38:05;;;;;;;3.97;2.63;;;;;;;;;;4976036;28;20308;-75
2022/08/10 07:40:34;;;;;;;4.13;2.70;;;;;;;;;;4976374;28;20202;-75
2022/08/10 07:43:03;;;;;;;3.10;2.80;;;;;;;;;;4975657;28;20245;-75
2022/08/10 07:45:34;;;;;;;3.95;2.65;;;;;;;;;;4976182;28;20209;-75
2022/08/10 07:48:06;;;;;;;4.03;3.00;;;;;;;;;;4976021;28;20229;-75
2022/08/10 07:50:37;;;;;;;5.40;2.78;;;;;;;;;;4976054;28;20205;-75
2022/08/10 07:53:09;;;;;;;4.85;2.85;;;;;;;;;;4975674;28;20212;-75
2022/08/10 07:58:39;;;;;;;3.53;2.50;;;;;;;;;;4975974;28;20221;-75
2022/08/10 08:01:21;;;;;;;5.03;2.80;;;;;;;;;;4975632;28;20231;-75
2022/08/10 08:03:51;;;;;;;4.88;2.75;;;;;;;;;;4976651;28;20206;-75
2022/08/10 08:06:39;;;;;;;4.75;3.10;;;;;;;;;;4962054;28;20257;-75
2022/08/10 08:09:08;;;;;;;3.40;2.60;;;;;;;;;;4975857;28;20225;-75
2022/08/10 08:11:37;;;;;;;4.65;2.42;;;;;;;;;;4976794;28;20209;-74
2022/08/10 08:14:08;;;;;;;3.55;2.58;;;;;;;;;;4968971;28;20257;-75
2022/08/10 08:16:39;;;;;;;2.38;2.17;;;;;;;;;;4975654;28;20213;-75
2022/08/10 08:19:08;;;;;;;5.25;2.50;;;;;;;;;;4976679;28;20233;-75
2022/08/10 08:21:56;;;;;;;4.75;2.25;;;;;;;;;;4975994;28;20670;-74
2022/08/10 08:24:45;;;;;;;6.88;2.65;;;;;;;;;;4976275;28;20620;-74
2022/08/10 08:27:15;;;;;;;3.47;2.17;;;;;;;;;;4975080;28;20222;-74
2022/08/10 08:29:45;;;;;;;3.55;2.20;;;;;;;;;;4974347;28;20225;-74
2022/08/10 08:32:16;;;;;;;3.75;2.22;;;;;;;;;;4975968;28;20209;-74
2022/08/10 08:34:45;;;;;;;3.97;2.25;;;;;;;;;;4975429;28;20206;-74
2022/08/10 08:37:16;;;;;;;2.97;2.20;;;;;;;;;;4975300;28;20202;-75
2022/08/10 08:40:05;;;;;;;4.47;2.38;;;;;;;;;;4975809;28;20210;-74
2022/08/10 08:42:39;;;;;;;2.45;2.22;;;;;;;;;;4975468;28;20209;-75
2022/08/10 08:45:12;;;;;;;2.33;2.10;;;;;;;;;;4975490;28;20244;-75
2022/08/10 08:47:51;;;;;;;5.85;2.28;;;;;;;;;;4975124;28;20230;-75
2022/08/10 08:50:39;;;;;;;4.72;2.00;;;;;;;;;;4975220;28;20211;-75
2022/08/10 08:53:15;;;;;;;4.55;2.28;;;;;;;;;;4975709;28;20674;-75
2022/08/10 08:55:53;;;;;;;6.88;2.38;;;;;;;;;;4975182;28;20213;-75
2022/08/10 08:58:38;;;;;;;5.13;2.30;;;;;;;;;;4973293;28;20224;-75
2022/08/10 09:01:16;;;;;;;2.40;2.20;;;;;;;;;;4971777;28;20206;-75
2022/08/10 09:03:55;;;;;;;4.43;2.20;;;;;;;;;;4975207;28;20201;-75
2022/08/10 09:06:30;;;;;;;3.08;2.20;;;;;;;;;;4972103;28;20210;-74
2022/08/10 09:09:14;;;;;;;2.25;2.05;;;;;;;;;;4975488;28;20255;-75
2022/08/10 09:11:51;;;;;;;3.97;2.00;;;;;;;;;;4970045;28;20209;-75
2022/08/10 09:14:22;;;;;;;2.40;2.20;;;;;;;;;;4974703;28;20709;-75
2022/08/10 09:16:57;;;;;;;5.63;2.00;;;;;;;;;;4973670;28;20205;-75
2022/08/10 09:19:32;;;;;;;3.38;2.13;;;;;;;;;;4974651;28;20640;-75
2022/08/10 09:22:06;;;;;;;4.38;2.28;;;;;;;;;;4974617;28;20221;-75
2022/08/10 09:24:49;;;;;;;5.10;2.17;;;;;;;;;;4975092;28;20205;-75
2022/08/10 09:27:19;;;;;;;3.47;2.28;;;;;;;;;;4974113;28;20226;-74
2022/08/10 09:29:53;;;;;;;2.85;1.98;;;;;;;;;;4974665;28;20229;-74
2022/08/10 09:32:26;;;;;;;2.83;2.05;;;;;;;;;;4975291;28;20194;-78
2022/08/10 09:35:22;;;;;;;2.47;1.92;;;;;;;;;;4975901;28;20217;-78
2022/08/10 09:38:14;;;;;;;4.72;2.00;;;;;;;;;;4975434;28;20226;-80
2022/08/10 09:40:45;;;;;;;2.10;1.77;;;;;;;;;;4974916;28;20229;-77
2022/08/10 09:43:42;;;;;;;2.53;1.80;;;;;;;;;;4956049;29;20199;-78
2022/08/10 09:46:14;;;;;;;3.30;1.90;;;;;;;;;;4955860;29;20190;-80
2022/08/10 09:48:46;;;;;;;3.60;2.13;;;;;;;;;;4955505;28;20600;-77
2022/08/10 09:51:25;;;;;;;3.65;1.77;;;;;;;;;;4974690;28;20194;-78
2022/08/10 09:54:18;;;;;;;1.90;1.80;;;;;;;;;;4974847;28;20190;-78
2022/08/10 09:56:49;;;;;;;2.70;1.98;;;;;;;;;;4975211;28;20245;-79
2022/08/10 09:59:23;;;;;;;5.35;1.85;;;;;;;;;;4974925;28;20226;-79
2022/08/10 10:02:15;;;;;;;4.22;2.15;;;;;;;;;;4974854;28;20700;-78
2022/08/10 10:04:48;;;;;;;3.38;1.77;;;;;;;;;;4975329;28;20190;-78
2022/08/10 10:07:24;;;;;;;2.45;2.20;;;;;;;;;;4974456;28;20197;-79
2022/08/10 10:09:54;;;;;;;3.65;2.03;;;;;;;;;;4956123;28;20628;-79
2022/08/10 10:12:26;;;;;;;2.78;1.77;;;;;;;;;;4955281;29;20187;-79
2022/08/10 10:18:07;;;;;;;2.75;1.65;;;;;;;;;;4957837;28;20226;-78
2022/08/10 10:20:38;;;;;;;3.42;2.00;;;;;;;;;;4959252;29;20214;-78
2022/08/10 10:23:14;;;;;;;3.58;2.00;;;;;;;;;;4959318;29;20194;-78
2022/08/10 10:25:46;;;;;;;2.58;1.75;;;;;;;;;;4959502;29;20187;-79
2022/08/10 10:28:27;;;;;;;2.42;1.58;;;;;;;;;;4959126;29;20633;-78
2022/08/10 10:31:19;;;;;;;2.60;1.70;;;;;;;;;;4958568;29;20213;-79
2022/08/10 10:33:52;;;;;;;2.75;1.58;;;;;;;;;;4959762;29;20627;-79
2022/08/10 10:36:21;;;;;;;3.75;1.73;;;;;;;;;;4958453;29;20223;-79
2022/08/10 10:38:52;;;;;;;2.10;1.80;;;;;;;;;;4958932;29;20226;-79
2022/08/10 10:41:30;;;;;;;1.98;1.80;;;;;;;;;;4959491;29;20641;-80
2022/08/10 10:44:27;;;;;;;5.68;2.00;;;;;;;;;;4958966;29;20203;-79
2022/08/10 10:47:14;;;;;;;2.05;1.83;;;;;;;;;;4962236;28;20644;-75
2022/08/10 10:49:47;;;;;;;2.58;2.00;;;;;;;;;;4977960;28;20588;-75
2022/08/10 10:52:21;;;;;;;3.90;1.95;;;;;;;;;;4977968;28;20209;-74
2022/08/10 10:55:04;;;;;;;2.45;1.80;;;;;;;;;;4977630;28;20206;-74
2022/08/10 10:57:38;;;;;;;3.05;2.00;;;;;;;;;;4963679;28;20202;-75
2022/08/10 11:00:30;;;;;;;4.10;1.67;;;;;;;;;;4977410;28;20206;-75
2022/08/10 11:03:04;;;;;;;2.42;1.80;;;;;;;;;;4978337;28;20233;-75
2022/08/10 11:05:36;;;;;;;5.95;1.80;;;;;;;;;;4979801;28;20190;-80
2022/08/10 11:08:08;;;;;;;4.40;1.80;;;;;;;;;;4977951;28;20230;-78
2022/08/10 11:10:46;;;;;;;4.30;1.80;;;;;;;;;;4977375;28;20284;-78
2022/08/10 11:13:22;;;;;;;4.43;1.85;;;;;;;;;;4977711;28;20226;-79
2022/08/10 11:16:14;;;;;;;2.45;1.80;;;;;;;;;;4977352;28;20264;-77
2022/08/10 11:19:00;;;;;;;3.95;1.80;;;;;;;;;;4977513;28;20234;-79
2022/08/10 11:21:37;;;;;;;2.15;1.73;;;;;;;;;;4958168;28;20285;-78
2022/08/10 11:24:08;;;;;;;2.33;1.70;;;;;;;;;;4957893;29;20197;-79
2022/08/10 11:27:03;;;;;;;2.25;1.83;;;;;;;;;;4958111;29;20718;-78
2022/08/10 11:29:34;;;;;;;3.00;1.90;;;;;;;;;;4957658;28;20284;-78
2022/08/10 11:32:05;;;;;;;3.38;2.00;;;;;;;;;;4958009;29;20202;-78
2022/08/10 11:34:36;;;;;;;2.42;1.80;;;;;;;;;;4956687;29;20271;-78
2022/08/10 11:37:19;;;;;;;3.17;1.75;;;;;;;;;;4959277;29;20573;-79
2022/08/10 11:39:51;;;;;;;3.72;2.10;;;;;;;;;;4957702;29;20650;-79
2022/08/10 11:42:30;;;;;;;2.05;1.73;;;;;;;;;;4956333;29;20199;-79
2022/08/10 11:45:06;;;;;;;4.13;1.83;;;;;;;;;;4956501;28;20920;-79
2022/08/10 11:47:38;;;;;;;2.42;1.70;;;;;;;;;;4956021;29;20274;-78
2022/08/10 11:50:12;;;;;;;1.70;1.60;;;;;;;;;;4956365;29;20214;-77
2022/08/10 11:52:43;;;;;;;2.97;1.77;;;;;;;;;;4956188;29;20198;-76
2022/08/10 11:55:13;;;;;;;2.83;1.85;;;;;;;;;;4956384;29;20567;-78
2022/08/10 11:57:45;;;;;;;2.55;1.77;;;;;;;;;;4955979;29;20183;-78
2022/08/10 12:00:22;;;;;;;2.85;1.80;;;;;;;;;;4955888;29;20222;-77
2022/08/10 12:02:53;;;;;;;4.50;1.80;;;;;;;;;;4955870;29;20222;-78
2022/08/10 12:05:23;;;;;;;1.80;1.70;;;;;;;;;;4967451;28;20237;-74
2022/08/10 12:08:12;;;;;;;3.72;1.90;;;;;;;;;;4974216;28;20265;-74
2022/08/10 12:11:01;;;;;;;3.33;1.90;;;;;;;;;;4973918;28;20639;-75
2022/08/10 12:13:37;;;;;;;2.72;2.10;;;;;;;;;;4954764;28;20253;-74
2022/08/10 12:16:07;;;;;;;4.40;2.00;;;;;;;;;;4971053;28;20626;-74
2022/08/10 12:18:44;;;;;;;2.38;2.00;;;;;;;;;;4972518;28;20565;-74
2022/08/10 12:21:16;;;;;;;3.55;1.90;;;;;;;;;;4972078;28;20233;-74
2022/08/10 12:23:51;;;;;;;4.53;1.90;;;;;;;;;;4974319;28;20211;-74
2022/08/10 12:26:33;;;;;;;1.88;1.77;;;;;;;;;;4972922;28;20214;-75
2022/08/10 12:29:09;;;;;;;2.90;2.10;;;;;;;;;;4972275;28;20236;-74
2022/08/10 12:31:44;;;;;;;2.90;1.90;;;;;;;;;;4790723;28;10000390;-74
2022/08/10 12:34:17;;;;;;;2.42;1.70;;;;;;;;;;4956399;28;20406;-74
2022/08/10 12:36:48;;;;;;;2.40;1.83;;;;;;;;;;4972628;28;20217;-75
2022/08/10 12:39:19;;;;;;;2.90;1.83;;;;;;;;;;4972426;28;20699;-74
2022/08/10 12:41:52;;;;;;;2.30;1.90;;;;;;;;;;4973573;28;20217;-75
2022/08/10 12:44:25;;;;;;;3.28;1.85;;;;;;;;;;4972951;28;20719;-75
2022/08/10 12:47:15;;;;;;;3.20;2.10;;;;;;;;;;4969856;28;20265;-75
2022/08/10 12:49:52;;;;;;;3.92;1.90;;;;;;;;;;4972867;28;20745;-75
2022/08/10 12:52:42;;;;;;;3.22;1.58;;;;;;;;;;4966718;28;20214;-75
2022/08/10 12:55:12;;;;;;;2.90;1.58;;;;;;;;;;4972406;28;20202;-75
2022/08/10 12:57:41;;;;;;;2.72;1.60;;;;;;;;;;4972980;28;20247;-75
2022/08/10 13:00:14;;;;;;;2.10;1.88;;;;;;;;;;4971976;28;20202;-75
2022/08/10 13:02:45;;;;;;;1.85;1.70;;;;;;;;;;4971045;28;20241;-75
2022/08/10 13:05:16;;;;;;;2.95;1.90;;;;;;;;;;4972498;28;20214;-75
2022/08/10 13:07:46;;;;;;;1.98;1.77;;;;;;;;;;4972707;28;20209;-75
2022/08/10 13:10:42;;;;;;;3.83;1.67;;;;;;;;;;4972273;28;20265;-75
2022/08/10 13:13:14;;;;;;;1.75;1.65;;;;;;;;;;4972155;28;20201;-75
2022/08/10 13:15:47;;;;;;;4.03;1.70;;;;;;;;;;4967724;28;20205;-75
2022/08/10 13:18:23;;;;;;;1.70;1.60;;;;;;;;;;4972413;28;20325;-75
2022/08/10 13:20:53;;;;;;;3.28;1.90;;;;;;;;;;4971720;28;20217;-75
2022/08/10 13:23:22;;;;;;;1.98;1.80;;;;;;;;;;4973553;28;20213;-75
2022/08/10 13:25:52;;;;;;;4.40;1.80;;;;;;;;;;4973594;28;20225;-74
2022/08/10 13:28:23;;;;;;;1.88;1.63;;;;;;;;;;4972460;28;20758;-74
2022/08/10 13:31:09;;;;;;;2.78;1.70;;;;;;;;;;4971679;28;20292;-75
2022/08/10 13:33:46;;;;;;;3.90;1.98;;;;;;;;;;4966761;28;20202;-74
2022/08/10 13:36:36;;;;;;;3.60;1.90;;;;;;;;;;4966785;28;20252;-74
2022/08/10 13:39:05;;;;;;;2.25;1.60;;;;;;;;;;4971752;28;20693;-74
2022/08/10 13:41:38;;;;;;;2.10;1.83;;;;;;;;;;4971071;28;20260;-75
2022/08/10 13:44:07;;;;;;;3.10;1.83;;;;;;;;;;4960191;28;20213;-74
2022/08/10 13:46:39;;;;;;;2.75;2.00;;;;;;;;;;4964560;28;20209;-74
2022/08/10 13:49:08;;;;;;;3.47;1.85;;;;;;;;;;4964414;28;20229;-75
2022/08/10 13:51:38;;;;;;;3.15;1.88;;;;;;;;;;4966335;28;20202;-75
2022/08/10 13:54:26;;;;;;;3.05;1.83;;;;;;;;;;4968624;28;20267;-74
2022/08/10 13:56:56;;;;;;;2.67;1.88;;;;;;;;;;4960950;28;20213;-74
2022/08/10 13:59:28;;;;;;;3.58;1.60;;;;;;;;;;4962918;28;20300;-74
2022/08/10 14:02:23;;;;;;;3.92;2.00;;;;;;;;;;4965869;28;20213;-74
2022/08/10 14:04:55;;;;;;;3.00;1.80;;;;;;;;;;4969183;28;20208;-74
2022/08/10 14:07:37;;;;;;;5.13;1.83;;;;;;;;;;4964537;28;20216;-74
2022/08/10 14:10:29;;;;;;;2.00;1.70;;;;;;;;;;4961611;28;20234;-74
2022/08/10 14:13:20;;;;;;;3.05;1.90;;;;;;;;;;4970097;28;20820;-74
2022/08/10 14:15:50;;;;;;;2.63;1.73;;;;;;;;;;4967702;28;20201;-74
2022/08/10 14:18:20;;;;;;;3.30;1.90;;;;;;;;;;4970363;28;20253;-74
2022/08/10 14:26:27;;;;;;;2.92;2.00;;;;;;;;;;4964586;28;20671;-74
2022/08/10 14:28:58;;;;;;;1.98;1.80;;;;;;;;;;4966593;28;20236;-74
2022/08/10 14:31:34;;;;;;;4.70;1.80;;;;;;;;;;4968563;28;20214;-75
2022/08/10 14:34:08;;;;;;;3.17;1.63;;;;;;;;;;4970938;28;20288;-75
2022/08/10 14:36:41;;;;;;;2.25;1.85;;;;;;;;;;4970672;28;20326;-75
2022/08/10 14:39:13;;;;;;;2.03;1.77;;;;;;;;;;4970660;28;20944;-74
2022/08/10 14:41:43;;;;;;;2.22;1.80;;;;;;;;;;4968545;28;20281;-75
2022/08/10 14:44:43;;;;;;;3.63;1.92;;;;;;;;;;4970576;28;20205;-75
2022/08/10 14:47:13;;;;;;;1.90;1.80;;;;;;;;;;4962232;28;20864;-75
2022/08/10 14:50:03;;;;;;;3.35;1.80;;;;;;;;;;4971519;28;20233;-75
2022/08/10 14:52:38;;;;;;;2.88;1.80;;;;;;;;;;4971938;28;20659;-75
2022/08/10 14:55:12;;;;;;;2.38;1.70;;;;;;;;;;4965187;28;20213;-75
2022/08/10 14:57:48;;;;;;;5.55;1.88;;;;;;;;;;4967250;28;20214;-74
2022/08/10 15:00:39;;;;;;;2.15;1.60;;;;;;;;;;4961725;28;20727;-75
2022/08/10 15:03:12;;;;;;;2.97;1.70;;;;;;;;;;4970191;28;20641;-75
2022/08/10 15:06:09;;;;;;;2.47;1.55;;;;;;;;;;4972572;28;20206;-75
2022/08/10 15:08:46;;;;;;;2.45;1.60;;;;;;;;;;4972117;28;20221;-75
2022/08/10 15:11:15;;;;;;;3.47;1.90;;;;;;;;;;4970809;28;20226;-75
2022/08/10 15:14:04;;;;;;;3.47;1.75;;;;;;;;;;4973385;28;20630;-75
2022/08/10 15:19:47;;;;;;;2.30;1.48;;;;;;;;;;4978025;28;20229;-76
2022/08/10 15:22:34;;;;;;;2.38;1.60;;;;;;;;;;4975753;28;20526;-76
2022/08/10 15:25:06;;;;;;;3.03;1.63;;;;;;;;;;4976658;28;20248;-76
2022/08/10 15:27:48;;;;;;;1.70;1.60;;;;;;;;;;4976654;28;20281;-76
2022/08/10 15:30:26;;;;;;;2.47;1.90;;;;;;;;;;4977159;28;20645;-76
2022/08/10 15:38:59;;;;;;;2.55;1.60;;;;;;;;;;4957759;28;20347;-76
2022/08/10 15:41:40;;;;;;;3.08;1.80;;;;;;;;;;4977320;28;20221;-75
2022/08/10 15:44:35;;;;;;;3.33;1.80;;;;;;;;;;4957068;29;20281;-76
2022/08/10 15:47:05;;;;;;;1.70;1.60;;;;;;;;;;4976211;28;20202;-76
2022/08/10 15:49:36;;;;;;;2.45;1.60;;;;;;;;;;4974541;28;20332;-76
2022/08/10 15:52:09;;;;;;;2.40;1.50;;;;;;;;;;4976807;28;20229;-76
2022/08/10 15:54:41;;;;;;;1.88;1.70;;;;;;;;;;4973817;28;20278;-76